Cachirulo, Argentina
Current Conditions -  °F | °C
As of 9:00 PM on Friday 24 Oct 2014 (Local Time) from SAOC Reporting Station
Thunderstorm Thunderstorm  
Wind Chill: 79°   Ceiling: Unl
Heat Index: 80°   Visibility: 6mi
Dew Point: 57°   Wind: 10mph
Humidity: 47%   Direction: 360°N
Pressure: 29.88"   Gusts: NA
Location:  36.71°S, 64.36°W
Report Text: SAOC 250000Z 36009KT 9999 -TS FEW030FEW040CB 26/14 Q1012
Loading
Personal Weather Stations






























Interactive Weather Map
Tropical Storm Tracking
New forecast layout! Learn more

10-Day Weather Forecast

Advertisements
Track Severe Weather on mobile